sensor_id;sensor_type;location;lat;lon;timestamp;P1;durP1;ratioP1;P2;durP2;ratioP2
66794;SDS011;53698;52.738;4.752;2022-07-15T00:01:31;4.68;;;1.30;;
66794;SDS011;53698;52.738;4.752;2022-07-15T00:03:58;9.18;;;1.35;;
66794;SDS011;53698;52.738;4.752;2022-07-15T00:06:23;9.15;;;1.67;;
66794;SDS011;53698;52.738;4.752;2022-07-15T00:08:48;8.40;;;1.50;;
66794;SDS011;53698;52.738;4.752;2022-07-15T00:11:14;12.30;;;1.55;;
66794;SDS011;53698;52.738;4.752;2022-07-15T00:13:39;6.40;;;1.27;;
66794;SDS011;53698;52.738;4.752;2022-07-15T00:16:04;4.57;;;1.40;;
66794;SDS011;53698;52.738;4.752;2022-07-15T00:18:30;8.10;;;1.65;;
66794;SDS011;53698;52.738;4.752;2022-07-15T00:20:55;9.50;;;1.60;;
66794;SDS011;53698;52.738;4.752;2022-07-15T00:23:21;12.27;;;1.92;;
66794;SDS011;53698;52.738;4.752;2022-07-15T00:25:46;6.38;;;1.25;;
66794;SDS011;53698;52.738;4.752;2022-07-15T00:28:11;9.85;;;1.40;;
66794;SDS011;53698;52.738;4.752;2022-07-15T00:30:38;9.13;;;1.83;;
66794;SDS011;53698;52.738;4.752;2022-07-15T00:33:05;10.88;;;1.42;;
66794;SDS011;53698;52.738;4.752;2022-07-15T00:35:32;10.63;;;1.17;;
66794;SDS011;53698;52.738;4.752;2022-07-15T00:37:58;6.15;;;1.30;;
66794;SDS011;53698;52.738;4.752;2022-07-15T00:40:24;10.00;;;1.00;;
66794;SDS011;53698;52.738;4.752;2022-07-15T00:42:50;7.47;;;1.48;;
66794;SDS011;53698;52.738;4.752;2022-07-15T00:45:17;7.07;;;1.40;;
66794;SDS011;53698;52.738;4.752;2022-07-15T00:47:46;2.88;;;1.00;;
66794;SDS011;53698;52.738;4.752;2022-07-15T00:50:22;7.60;;;1.20;;
66794;SDS011;53698;52.738;4.752;2022-07-15T00:52:53;6.97;;;1.50;;
66794;SDS011;53698;52.738;4.752;2022-07-15T00:55:23;6.28;;;1.00;;
66794;SDS011;53698;52.738;4.752;2022-07-15T00:57:50;6.28;;;1.00;;
66794;SDS011;53698;52.738;4.752;2022-07-15T01:00:19;7.78;;;1.25;;
66794;SDS011;53698;52.738;4.752;2022-07-15T01:02:46;5.03;;;1.10;;
66794;SDS011;53698;52.738;4.752;2022-07-15T01:05:15;6.22;;;1.02;;
66794;SDS011;53698;52.738;4.752;2022-07-15T01:07:43;8.68;;;1.15;;
66794;SDS011;53698;52.738;4.752;2022-07-15T01:10:09;9.85;;;1.52;;
66794;SDS011;53698;52.738;4.752;2022-07-15T01:12:35;8.00;;;1.40;;
66794;SDS011;53698;52.738;4.752;2022-07-15T01:15:06;8.20;;;1.67;;
66794;SDS011;53698;52.738;4.752;2022-07-15T01:17:32;9.43;;;1.10;;
66794;SDS011;53698;52.738;4.752;2022-07-15T01:19:58;6.88;;;1.27;;
66794;SDS011;53698;52.738;4.752;2022-07-15T01:22:26;10.20;;;1.60;;
66794;SDS011;53698;52.738;4.752;2022-07-15T01:24:52;5.25;;;0.98;;
66794;SDS011;53698;52.738;4.752;2022-07-15T01:27:22;6.68;;;1.73;;
66794;SDS011;53698;52.738;4.752;2022-07-15T01:29:50;7.00;;;1.30;;
66794;SDS011;53698;52.738;4.752;2022-07-15T01:32:15;9.55;;;1.63;;
66794;SDS011;53698;52.738;4.752;2022-07-15T01:34:41;12.45;;;1.65;;
66794;SDS011;53698;52.738;4.752;2022-07-15T01:37:07;11.75;;;1.80;;
66794;SDS011;53698;52.738;4.752;2022-07-15T01:39:37;10.25;;;1.33;;
66794;SDS011;53698;52.738;4.752;2022-07-15T01:42:02;9.57;;;1.33;;
66794;SDS011;53698;52.738;4.752;2022-07-15T01:44:27;8.50;;;1.95;;
66794;SDS011;53698;52.738;4.752;2022-07-15T01:46:53;7.05;;;1.17;;
66794;SDS011;53698;52.738;4.752;2022-07-15T01:49:24;11.07;;;1.70;;
66794;SDS011;53698;52.738;4.752;2022-07-15T01:52:12;6.72;;;1.45;;
66794;SDS011;53698;52.738;4.752;2022-07-15T01:54:39;6.25;;;1.20;;
66794;SDS011;53698;52.738;4.752;2022-07-15T01:57:06;7.40;;;1.48;;
66794;SDS011;53698;52.738;4.752;2022-07-15T01:59:38;9.75;;;1.50;;
66794;SDS011;53698;52.738;4.752;2022-07-15T02:02:04;9.32;;;1.42;;
66794;SDS011;53698;52.738;4.752;2022-07-15T02:04:29;9.43;;;1.98;;
66794;SDS011;53698;52.738;4.752;2022-07-15T02:06:55;5.05;;;1.42;;
66794;SDS011;53698;52.738;4.752;2022-07-15T02:09:20;8.18;;;1.33;;
66794;SDS011;53698;52.738;4.752;2022-07-15T02:11:49;5.60;;;1.13;;
66794;SDS011;53698;52.738;4.752;2022-07-15T02:14:15;6.15;;;1.30;;
66794;SDS011;53698;52.738;4.752;2022-07-15T02:16:41;6.95;;;1.73;;
66794;SDS011;53698;52.738;4.752;2022-07-15T02:19:21;4.70;;;1.17;;
66794;SDS011;53698;52.738;4.752;2022-07-15T02:21:47;9.38;;;1.33;;
66794;SDS011;53698;52.738;4.752;2022-07-15T02:24:13;6.05;;;1.50;;
66794;SDS011;53698;52.738;4.752;2022-07-15T02:26:39;6.78;;;1.23;;
66794;SDS011;53698;52.738;4.752;2022-07-15T02:29:06;8.77;;;1.50;;
66794;SDS011;53698;52.738;4.752;2022-07-15T02:31:31;4.22;;;1.13;;
66794;SDS011;53698;52.738;4.752;2022-07-15T02:33:57;5.93;;;1.70;;
66794;SDS011;53698;52.738;4.752;2022-07-15T02:36:26;8.75;;;1.60;;
66794;SDS011;53698;52.738;4.752;2022-07-15T02:38:51;7.85;;;1.58;;
66794;SDS011;53698;52.738;4.752;2022-07-15T02:41:17;6.57;;;1.05;;
66794;SDS011;53698;52.738;4.752;2022-07-15T02:43:44;3.05;;;1.05;;
66794;SDS011;53698;52.738;4.752;2022-07-15T02:46:10;8.00;;;1.58;;
66794;SDS011;53698;52.738;4.752;2022-07-15T02:48:37;6.82;;;1.20;;
66794;SDS011;53698;52.738;4.752;2022-07-15T02:51:03;4.82;;;1.30;;
66794;SDS011;53698;52.738;4.752;2022-07-15T02:53:29;4.80;;;1.23;;
66794;SDS011;53698;52.738;4.752;2022-07-15T02:55:59;6.60;;;1.38;;
66794;SDS011;53698;52.738;4.752;2022-07-15T02:58:25;4.72;;;1.40;;
66794;SDS011;53698;52.738;4.752;2022-07-15T03:00:52;7.03;;;1.10;;
66794;SDS011;53698;52.738;4.752;2022-07-15T03:03:17;7.30;;;1.50;;
66794;SDS011;53698;52.738;4.752;2022-07-15T03:05:43;10.65;;;1.50;;
66794;SDS011;53698;52.738;4.752;2022-07-15T03:08:09;10.00;;;1.48;;
66794;SDS011;53698;52.738;4.752;2022-07-15T03:10:35;6.00;;;1.40;;
66794;SDS011;53698;52.738;4.752;2022-07-15T03:13:01;8.10;;;1.55;;
66794;SDS011;53698;52.738;4.752;2022-07-15T03:15:26;5.70;;;1.35;;
66794;SDS011;53698;52.738;4.752;2022-07-15T03:17:52;3.63;;;1.30;;
66794;SDS011;53698;52.738;4.752;2022-07-15T03:20:17;7.95;;;1.50;;
66794;SDS011;53698;52.738;4.752;2022-07-15T03:22:46;5.30;;;1.20;;
66794;SDS011;53698;52.738;4.752;2022-07-15T03:25:12;3.20;;;1.27;;
66794;SDS011;53698;52.738;4.752;2022-07-15T03:27:37;4.72;;;1.25;;
66794;SDS011;53698;52.738;4.752;2022-07-15T03:30:05;5.88;;;1.23;;
66794;SDS011;53698;52.738;4.752;2022-07-15T03:32:31;3.90;;;1.05;;
66794;SDS011;53698;52.738;4.752;2022-07-15T03:34:56;2.55;;;1.10;;
66794;SDS011;53698;52.738;4.752;2022-07-15T03:37:24;7.60;;;1.58;;
66794;SDS011;53698;52.738;4.752;2022-07-15T03:39:49;4.57;;;1.45;;
66794;SDS011;53698;52.738;4.752;2022-07-15T03:42:15;4.35;;;1.30;;
66794;SDS011;53698;52.738;4.752;2022-07-15T03:44:42;5.93;;;1.52;;
66794;SDS011;53698;52.738;4.752;2022-07-15T03:47:07;4.43;;;1.40;;
66794;SDS011;53698;52.738;4.752;2022-07-15T03:49:34;4.75;;;1.35;;
66794;SDS011;53698;52.738;4.752;2022-07-15T03:51:59;3.72;;;1.48;;
66794;SDS011;53698;52.738;4.752;2022-07-15T03:54:25;5.43;;;1.40;;
66794;SDS011;53698;52.738;4.752;2022-07-15T03:56:50;5.68;;;1.40;;
66794;SDS011;53698;52.738;4.752;2022-07-15T03:59:18;4.00;;;1.40;;
66794;SDS011;53698;52.738;4.752;2022-07-15T04:01:46;3.35;;;1.50;;
66794;SDS011;53698;52.738;4.752;2022-07-15T04:04:13;6.20;;;1.23;;
66794;SDS011;53698;52.738;4.752;2022-07-15T04:06:39;6.78;;;1.48;;
66794;SDS011;53698;52.738;4.752;2022-07-15T04:09:05;5.22;;;1.25;;
66794;SDS011;53698;52.738;4.752;2022-07-15T04:11:30;6.95;;;1.42;;
66794;SDS011;53698;52.738;4.752;2022-07-15T04:13:56;5.32;;;1.23;;
66794;SDS011;53698;52.738;4.752;2022-07-15T04:16:21;3.95;;;1.42;;
66794;SDS011;53698;52.738;4.752;2022-07-15T04:18:49;6.90;;;2.00;;
66794;SDS011;53698;52.738;4.752;2022-07-15T04:21:16;9.90;;;1.85;;
66794;SDS011;53698;52.738;4.752;2022-07-15T04:23:43;6.18;;;1.20;;
66794;SDS011;53698;52.738;4.752;2022-07-15T04:26:08;8.25;;;1.65;;
66794;SDS011;53698;52.738;4.752;2022-07-15T04:28:34;10.50;;;1.70;;
66794;SDS011;53698;52.738;4.752;2022-07-15T04:31:00;6.13;;;1.48;;
66794;SDS011;53698;52.738;4.752;2022-07-15T04:33:30;10.07;;;1.45;;
66794;SDS011;53698;52.738;4.752;2022-07-15T04:35:57;9.75;;;1.80;;
66794;SDS011;53698;52.738;4.752;2022-07-15T04:38:22;9.85;;;1.65;;
66794;SDS011;53698;52.738;4.752;2022-07-15T04:40:48;5.18;;;1.67;;
66794;SDS011;53698;52.738;4.752;2022-07-15T04:43:16;5.57;;;1.30;;
66794;SDS011;53698;52.738;4.752;2022-07-15T04:45:43;4.10;;;1.50;;
66794;SDS011;53698;52.738;4.752;2022-07-15T04:48:13;9.83;;;1.83;;
66794;SDS011;53698;52.738;4.752;2022-07-15T04:50:57;7.72;;;2.25;;
66794;SDS011;53698;52.738;4.752;2022-07-15T04:53:25;6.35;;;2.00;;
66794;SDS011;53698;52.738;4.752;2022-07-15T04:55:52;9.50;;;1.88;;
66794;SDS011;53698;52.738;4.752;2022-07-15T04:58:17;9.10;;;1.65;;
66794;SDS011;53698;52.738;4.752;2022-07-15T05:00:43;4.80;;;1.58;;
66794;SDS011;53698;52.738;4.752;2022-07-15T05:03:12;9.30;;;2.63;;
66794;SDS011;53698;52.738;4.752;2022-07-15T05:05:37;7.72;;;1.60;;
66794;SDS011;53698;52.738;4.752;2022-07-15T05:08:03;11.15;;;1.95;;
66794;SDS011;53698;52.738;4.752;2022-07-15T05:10:29;5.70;;;1.83;;
66794;SDS011;53698;52.738;4.752;2022-07-15T05:13:02;10.68;;;2.05;;
66794;SDS011;53698;52.738;4.752;2022-07-15T05:15:30;5.20;;;1.73;;
66794;SDS011;53698;52.738;4.752;2022-07-15T05:18:01;5.03;;;1.50;;
66794;SDS011;53698;52.738;4.752;2022-07-15T05:20:27;6.55;;;1.30;;
66794;SDS011;53698;52.738;4.752;2022-07-15T05:22:52;5.05;;;1.23;;
66794;SDS011;53698;52.738;4.752;2022-07-15T05:25:18;7.30;;;1.75;;
66794;SDS011;53698;52.738;4.752;2022-07-15T05:27:44;7.07;;;1.50;;
66794;SDS011;53698;52.738;4.752;2022-07-15T05:30:10;7.47;;;1.40;;
66794;SDS011;53698;52.738;4.752;2022-07-15T05:32:38;5.18;;;1.23;;
66794;SDS011;53698;52.738;4.752;2022-07-15T05:35:11;6.22;;;1.38;;
66794;SDS011;53698;52.738;4.752;2022-07-15T05:37:38;8.02;;;1.20;;
66794;SDS011;53698;52.738;4.752;2022-07-15T05:40:05;5.50;;;1.85;;
66794;SDS011;53698;52.738;4.752;2022-07-15T05:42:39;5.97;;;1.10;;
66794;SDS011;53698;52.738;4.752;2022-07-15T05:45:07;6.88;;;1.35;;
66794;SDS011;53698;52.738;4.752;2022-07-15T05:47:34;8.93;;;1.13;;
66794;SDS011;53698;52.738;4.752;2022-07-15T05:49:59;4.70;;;1.02;;
66794;SDS011;53698;52.738;4.752;2022-07-15T05:52:27;3.08;;;0.65;;
66794;SDS011;53698;52.738;4.752;2022-07-15T05:54:53;4.28;;;1.00;;
66794;SDS011;53698;52.738;4.752;2022-07-15T05:57:18;5.85;;;1.35;;
66794;SDS011;53698;52.738;4.752;2022-07-15T05:59:43;2.80;;;0.93;;
66794;SDS011;53698;52.738;4.752;2022-07-15T06:02:09;7.72;;;1.23;;
66794;SDS011;53698;52.738;4.752;2022-07-15T06:04:36;6.53;;;1.17;;
66794;SDS011;53698;52.738;4.752;2022-07-15T06:07:02;4.88;;;1.40;;
66794;SDS011;53698;52.738;4.752;2022-07-15T06:09:28;5.63;;;0.75;;
66794;SDS011;53698;52.738;4.752;2022-07-15T06:11:54;4.00;;;0.95;;
66794;SDS011;53698;52.738;4.752;2022-07-15T06:14:19;4.50;;;0.82;;
66794;SDS011;53698;52.738;4.752;2022-07-15T06:16:47;7.88;;;0.50;;
66794;SDS011;53698;52.738;4.752;2022-07-15T06:19:13;3.13;;;0.50;;
66794;SDS011;53698;52.738;4.752;2022-07-15T06:21:38;5.18;;;0.60;;
66794;SDS011;53698;52.738;4.752;2022-07-15T06:24:03;4.05;;;0.80;;
66794;SDS011;53698;52.738;4.752;2022-07-15T06:26:29;2.80;;;0.60;;
66794;SDS011;53698;52.738;4.752;2022-07-15T06:28:54;2.85;;;0.52;;
66794;SDS011;53698;52.738;4.752;2022-07-15T06:31:20;3.17;;;0.55;;
66794;SDS011;53698;52.738;4.752;2022-07-15T06:33:45;2.10;;;0.95;;
66794;SDS011;53698;52.738;4.752;2022-07-15T06:36:10;6.28;;;0.47;;
66794;SDS011;53698;52.738;4.752;2022-07-15T06:38:36;2.58;;;0.30;;
66794;SDS011;53698;52.738;4.752;2022-07-15T06:41:01;1.88;;;0.47;;
66794;SDS011;53698;52.738;4.752;2022-07-15T06:43:27;2.88;;;0.50;;
66794;SDS011;53698;52.738;4.752;2022-07-15T06:46:07;2.20;;;0.45;;
66794;SDS011;53698;52.738;4.752;2022-07-15T06:48:33;4.60;;;0.95;;
66794;SDS011;53698;52.738;4.752;2022-07-15T06:50:58;3.65;;;0.50;;
66794;SDS011;53698;52.738;4.752;2022-07-15T06:53:24;2.72;;;0.80;;
66794;SDS011;53698;52.738;4.752;2022-07-15T06:55:51;1.45;;;0.40;;
66794;SDS011;53698;52.738;4.752;2022-07-15T06:58:17;3.75;;;0.60;;
66794;SDS011;53698;52.738;4.752;2022-07-15T07:00:43;3.28;;;0.43;;
66794;SDS011;53698;52.738;4.752;2022-07-15T07:03:08;3.28;;;0.60;;
66794;SDS011;53698;52.738;4.752;2022-07-15T07:05:33;3.10;;;0.68;;
66794;SDS011;53698;52.738;4.752;2022-07-15T07:08:00;6.05;;;0.60;;
66794;SDS011;53698;52.738;4.752;2022-07-15T07:10:25;2.83;;;0.30;;
66794;SDS011;53698;52.738;4.752;2022-07-15T07:12:51;1.77;;;0.50;;
66794;SDS011;53698;52.738;4.752;2022-07-15T07:15:17;3.03;;;0.30;;
66794;SDS011;53698;52.738;4.752;2022-07-15T07:17:44;1.85;;;0.90;;
66794;SDS011;53698;52.738;4.752;2022-07-15T07:20:09;1.83;;;0.50;;
66794;SDS011;53698;52.738;4.752;2022-07-15T07:22:35;4.68;;;0.75;;
66794;SDS011;53698;52.738;4.752;2022-07-15T07:25:01;4.03;;;0.50;;
66794;SDS011;53698;52.738;4.752;2022-07-15T07:27:26;4.28;;;0.60;;
66794;SDS011;53698;52.738;4.752;2022-07-15T07:29:52;4.47;;;0.55;;
66794;SDS011;53698;52.738;4.752;2022-07-15T07:32:17;6.10;;;0.63;;
66794;SDS011;53698;52.738;4.752;2022-07-15T07:34:42;3.35;;;0.55;;
66794;SDS011;53698;52.738;4.752;2022-07-15T07:37:08;2.63;;;0.50;;
66794;SDS011;53698;52.738;4.752;2022-07-15T07:39:34;3.72;;;0.50;;
66794;SDS011;53698;52.738;4.752;2022-07-15T07:41:59;6.10;;;0.47;;
66794;SDS011;53698;52.738;4.752;2022-07-15T07:44:25;3.10;;;0.70;;
66794;SDS011;53698;52.738;4.752;2022-07-15T07:46:50;1.35;;;0.43;;
66794;SDS011;53698;52.738;4.752;2022-07-15T07:49:16;3.20;;;0.70;;
66794;SDS011;53698;52.738;4.752;2022-07-15T07:51:41;1.05;;;0.38;;
66794;SDS011;53698;52.738;4.752;2022-07-15T07:54:07;3.50;;;0.70;;
66794;SDS011;53698;52.738;4.752;2022-07-15T07:56:33;2.35;;;0.40;;
66794;SDS011;53698;52.738;4.752;2022-07-15T07:59:00;3.15;;;0.70;;
66794;SDS011;53698;52.738;4.752;2022-07-15T08:01:25;2.08;;;0.50;;
66794;SDS011;53698;52.738;4.752;2022-07-15T08:03:51;3.15;;;0.60;;
66794;SDS011;53698;52.738;4.752;2022-07-15T08:06:16;2.92;;;0.50;;
66794;SDS011;53698;52.738;4.752;2022-07-15T08:08:42;3.33;;;0.40;;
66794;SDS011;53698;52.738;4.752;2022-07-15T08:11:09;2.50;;;0.40;;
66794;SDS011;53698;52.738;4.752;2022-07-15T08:13:34;1.00;;;0.32;;
66794;SDS011;53698;52.738;4.752;2022-07-15T08:16:00;4.63;;;0.38;;
66794;SDS011;53698;52.738;4.752;2022-07-15T08:18:25;1.40;;;0.40;;
66794;SDS011;53698;52.738;4.752;2022-07-15T08:20:51;3.33;;;0.50;;
66794;SDS011;53698;52.738;4.752;2022-07-15T08:23:16;3.88;;;0.38;;
66794;SDS011;53698;52.738;4.752;2022-07-15T08:25:46;3.38;;;0.50;;
66794;SDS011;53698;52.738;4.752;2022-07-15T08:28:13;2.05;;;0.40;;
66794;SDS011;53698;52.738;4.752;2022-07-15T08:30:38;0.98;;;0.50;;
66794;SDS011;53698;52.738;4.752;2022-07-15T08:33:04;3.67;;;0.63;;
66794;SDS011;53698;52.738;4.752;2022-07-15T08:35:29;4.95;;;0.40;;
66794;SDS011;53698;52.738;4.752;2022-07-15T08:37:55;3.13;;;0.40;;
66794;SDS011;53698;52.738;4.752;2022-07-15T08:40:20;3.55;;;0.85;;
66794;SDS011;53698;52.738;4.752;2022-07-15T08:42:46;2.55;;;0.70;;
66794;SDS011;53698;52.738;4.752;2022-07-15T08:45:13;1.05;;;0.30;;
66794;SDS011;53698;52.738;4.752;2022-07-15T08:47:40;1.98;;;0.40;;
66794;SDS011;53698;52.738;4.752;2022-07-15T08:50:12;3.00;;;0.60;;
66794;SDS011;53698;52.738;4.752;2022-07-15T08:52:40;2.70;;;0.65;;
66794;SDS011;53698;52.738;4.752;2022-07-15T08:55:08;2.50;;;0.30;;
66794;SDS011;53698;52.738;4.752;2022-07-15T08:57:34;1.83;;;0.40;;
66794;SDS011;53698;52.738;4.752;2022-07-15T09:00:00;4.38;;;0.63;;
66794;SDS011;53698;52.738;4.752;2022-07-15T09:02:25;2.17;;;0.60;;
66794;SDS011;53698;52.738;4.752;2022-07-15T09:07:58;4.78;;;0.82;;
66794;SDS011;53698;52.738;4.752;2022-07-15T09:10:40;3.75;;;0.50;;
66794;SDS011;53698;52.738;4.752;2022-07-15T09:13:06;5.78;;;0.88;;
66794;SDS011;53698;52.738;4.752;2022-07-15T09:15:32;1.25;;;0.43;;
66794;SDS011;53698;52.738;4.752;2022-07-15T09:18:03;5.15;;;0.60;;
66794;SDS011;53698;52.738;4.752;2022-07-15T09:20:31;2.63;;;0.90;;
66794;SDS011;53698;52.738;4.752;2022-07-15T09:22:57;1.90;;;0.35;;
66794;SDS011;53698;52.738;4.752;2022-07-15T09:25:22;4.53;;;0.50;;
66794;SDS011;53698;52.738;4.752;2022-07-15T09:27:49;5.07;;;0.60;;
66794;SDS011;53698;52.738;4.752;2022-07-15T09:30:25;3.13;;;0.65;;
66794;SDS011;53698;52.738;4.752;2022-07-15T09:33:11;2.05;;;0.40;;
66794;SDS011;53698;52.738;4.752;2022-07-15T09:36:01;2.88;;;0.63;;
66794;SDS011;53698;52.738;4.752;2022-07-15T09:46:20;3.47;;;0.73;;
66794;SDS011;53698;52.738;4.752;2022-07-15T09:48:48;3.92;;;0.40;;
66794;SDS011;53698;52.738;4.752;2022-07-15T09:51:14;2.17;;;0.50;;
66794;SDS011;53698;52.738;4.752;2022-07-15T09:53:41;2.13;;;0.50;;
66794;SDS011;53698;52.738;4.752;2022-07-15T09:56:09;1.60;;;0.35;;
66794;SDS011;53698;52.738;4.752;2022-07-15T09:58:37;1.48;;;0.50;;
66794;SDS011;53698;52.738;4.752;2022-07-15T10:01:05;0.95;;;0.30;;
66794;SDS011;53698;52.738;4.752;2022-07-15T10:03:34;2.05;;;0.40;;
66794;SDS011;53698;52.738;4.752;2022-07-15T10:06:00;1.48;;;0.38;;
66794;SDS011;53698;52.738;4.752;2022-07-15T10:08:28;2.20;;;0.47;;
66794;SDS011;53698;52.738;4.752;2022-07-15T10:10:55;2.40;;;0.60;;
66794;SDS011;53698;52.738;4.752;2022-07-15T10:18:39;2.05;;;0.45;;
66794;SDS011;53698;52.738;4.752;2022-07-15T10:29:49;3.15;;;0.65;;
66794;SDS011;53698;52.738;4.752;2022-07-15T10:32:15;3.72;;;0.45;;
66794;SDS011;53698;52.738;4.752;2022-07-15T10:34:40;2.22;;;0.60;;
66794;SDS011;53698;52.738;4.752;2022-07-15T10:37:10;1.70;;;0.63;;
66794;SDS011;53698;52.738;4.752;2022-07-15T10:42:11;4.30;;;0.60;;
66794;SDS011;53698;52.738;4.752;2022-07-15T10:44:49;1.40;;;0.30;;
66794;SDS011;53698;52.738;4.752;2022-07-15T10:47:24;1.20;;;0.45;;
66794;SDS011;53698;52.738;4.752;2022-07-15T10:49:50;0.63;;;0.30;;
66794;SDS011;53698;52.738;4.752;2022-07-15T10:52:20;0.93;;;0.40;;
66794;SDS011;53698;52.738;4.752;2022-07-15T10:57:15;2.10;;;0.80;;
66794;SDS011;53698;52.738;4.752;2022-07-15T10:59:48;2.65;;;0.60;;
66794;SDS011;53698;52.738;4.752;2022-07-15T11:02:15;5.78;;;0.60;;
66794;SDS011;53698;52.738;4.752;2022-07-15T11:04:43;1.20;;;0.60;;
66794;SDS011;53698;52.738;4.752;2022-07-15T11:15:11;3.88;;;0.70;;
66794;SDS011;53698;52.738;4.752;2022-07-15T11:17:39;5.07;;;0.60;;
66794;SDS011;53698;52.738;4.752;2022-07-15T11:20:09;3.00;;;0.73;;
66794;SDS011;53698;52.738;4.752;2022-07-15T11:22:37;1.38;;;0.40;;
66794;SDS011;53698;52.738;4.752;2022-07-15T11:25:05;3.05;;;0.50;;
66794;SDS011;53698;52.738;4.752;2022-07-15T11:27:31;1.40;;;0.50;;
66794;SDS011;53698;52.738;4.752;2022-07-15T11:29:57;2.60;;;0.60;;
66794;SDS011;53698;52.738;4.752;2022-07-15T11:32:27;3.60;;;0.70;;
66794;SDS011;53698;52.738;4.752;2022-07-15T11:34:55;1.58;;;0.40;;
66794;SDS011;53698;52.738;4.752;2022-07-15T11:37:35;2.45;;;0.52;;
66794;SDS011;53698;52.738;4.752;2022-07-15T11:40:11;1.93;;;0.53;;
66794;SDS011;53698;52.738;4.752;2022-07-15T11:43:04;2.47;;;0.50;;
66794;SDS011;53698;52.738;4.752;2022-07-15T11:45:48;3.63;;;0.57;;
66794;SDS011;53698;52.738;4.752;2022-07-15T11:48:14;2.03;;;0.60;;
66794;SDS011;53698;52.738;4.752;2022-07-15T11:50:52;0.82;;;0.50;;
66794;SDS011;53698;52.738;4.752;2022-07-15T11:53:20;2.20;;;0.77;;
66794;SDS011;53698;52.738;4.752;2022-07-15T11:58:28;1.40;;;0.40;;
66794;SDS011;53698;52.738;4.752;2022-07-15T12:00:58;4.38;;;0.82;;
66794;SDS011;53698;52.738;4.752;2022-07-15T12:03:39;2.97;;;0.60;;
66794;SDS011;53698;52.738;4.752;2022-07-15T12:08:41;4.13;;;0.88;;
66794;SDS011;53698;52.738;4.752;2022-07-15T12:13:57;3.67;;;0.73;;
66794;SDS011;53698;52.738;4.752;2022-07-15T12:16:46;5.40;;;1.02;;
66794;SDS011;53698;52.738;4.752;2022-07-15T12:21:46;4.10;;;0.98;;
66794;SDS011;53698;52.738;4.752;2022-07-15T12:24:13;6.72;;;1.20;;
66794;SDS011;53698;52.738;4.752;2022-07-15T12:29:16;2.88;;;1.05;;
66794;SDS011;53698;52.738;4.752;2022-07-15T12:31:52;3.35;;;1.17;;
66794;SDS011;53698;52.738;4.752;2022-07-15T12:34:18;5.40;;;1.17;;
66794;SDS011;53698;52.738;4.752;2022-07-15T12:36:53;5.60;;;1.10;;
66794;SDS011;53698;52.738;4.752;2022-07-15T12:39:20;5.85;;;1.30;;
66794;SDS011;53698;52.738;4.752;2022-07-15T12:41:56;6.05;;;1.00;;
66794;SDS011;53698;52.738;4.752;2022-07-15T12:44:31;3.45;;;1.23;;
66794;SDS011;53698;52.738;4.752;2022-07-15T12:46:58;3.78;;;1.30;;
66794;SDS011;53698;52.738;4.752;2022-07-15T12:52:21;2.20;;;1.05;;
66794;SDS011;53698;52.738;4.752;2022-07-15T12:54:47;5.25;;;1.20;;
66794;SDS011;53698;52.738;4.752;2022-07-15T12:59:56;3.17;;;1.40;;
66794;SDS011;53698;52.738;4.752;2022-07-15T13:05:42;5.25;;;1.35;;
66794;SDS011;53698;52.738;4.752;2022-07-15T13:08:10;5.90;;;1.77;;
66794;SDS011;53698;52.738;4.752;2022-07-15T13:10:40;5.20;;;2.20;;
66794;SDS011;53698;52.738;4.752;2022-07-15T13:13:09;5.43;;;1.63;;
66794;SDS011;53698;52.738;4.752;2022-07-15T13:15:37;7.40;;;1.42;;
66794;SDS011;53698;52.738;4.752;2022-07-15T13:18:02;5.22;;;1.48;;
66794;SDS011;53698;52.738;4.752;2022-07-15T13:20:28;5.63;;;1.63;;
66794;SDS011;53698;52.738;4.752;2022-07-15T13:22:54;4.78;;;1.20;;
66794;SDS011;53698;52.738;4.752;2022-07-15T13:25:20;7.43;;;1.50;;
66794;SDS011;53698;52.738;4.752;2022-07-15T13:27:46;3.30;;;1.30;;
66794;SDS011;53698;52.738;4.752;2022-07-15T13:30:12;6.65;;;1.27;;
66794;SDS011;53698;52.738;4.752;2022-07-15T13:32:38;4.50;;;1.45;;
66794;SDS011;53698;52.738;4.752;2022-07-15T13:35:04;3.58;;;1.35;;
66794;SDS011;53698;52.738;4.752;2022-07-15T13:37:31;4.38;;;1.50;;
66794;SDS011;53698;52.738;4.752;2022-07-15T13:39:56;5.75;;;1.50;;
66794;SDS011;53698;52.738;4.752;2022-07-15T13:42:22;4.18;;;1.35;;
66794;SDS011;53698;52.738;4.752;2022-07-15T13:44:49;7.57;;;1.65;;
66794;SDS011;53698;52.738;4.752;2022-07-15T13:47:16;5.50;;;1.60;;
66794;SDS011;53698;52.738;4.752;2022-07-15T13:49:41;3.45;;;1.30;;
66794;SDS011;53698;52.738;4.752;2022-07-15T13:52:25;5.75;;;1.52;;
66794;SDS011;53698;52.738;4.752;2022-07-15T13:54:50;3.83;;;1.60;;
66794;SDS011;53698;52.738;4.752;2022-07-15T13:57:15;3.58;;;1.17;;
66794;SDS011;53698;52.738;4.752;2022-07-15T13:59:41;7.13;;;1.60;;
66794;SDS011;53698;52.738;4.752;2022-07-15T14:02:06;5.55;;;1.40;;
66794;SDS011;53698;52.738;4.752;2022-07-15T14:04:31;5.03;;;1.35;;
66794;SDS011;53698;52.738;4.752;2022-07-15T14:06:57;4.20;;;1.25;;
66794;SDS011;53698;52.738;4.752;2022-07-15T14:09:22;3.28;;;1.55;;
66794;SDS011;53698;52.738;4.752;2022-07-15T14:11:48;2.55;;;1.08;;
66794;SDS011;53698;52.738;4.752;2022-07-15T14:14:13;5.10;;;1.35;;
66794;SDS011;53698;52.738;4.752;2022-07-15T14:16:39;6.55;;;1.90;;
66794;SDS011;53698;52.738;4.752;2022-07-15T14:19:04;6.55;;;1.70;;
66794;SDS011;53698;52.738;4.752;2022-07-15T14:21:29;5.35;;;1.38;;
66794;SDS011;53698;52.738;4.752;2022-07-15T14:23:55;5.65;;;1.35;;
66794;SDS011;53698;52.738;4.752;2022-07-15T14:26:20;5.78;;;2.00;;
66794;SDS011;53698;52.738;4.752;2022-07-15T14:28:45;8.95;;;1.65;;
66794;SDS011;53698;52.738;4.752;2022-07-15T14:31:11;4.25;;;1.42;;
66794;SDS011;53698;52.738;4.752;2022-07-15T14:33:40;7.85;;;1.60;;
66794;SDS011;53698;52.738;4.752;2022-07-15T14:36:07;6.97;;;2.75;;
66794;SDS011;53698;52.738;4.752;2022-07-15T14:38:34;7.90;;;2.70;;
66794;SDS011;53698;52.738;4.752;2022-07-15T14:41:00;8.25;;;2.47;;
66794;SDS011;53698;52.738;4.752;2022-07-15T14:43:25;7.43;;;1.58;;
66794;SDS011;53698;52.738;4.752;2022-07-15T14:45:51;5.00;;;1.85;;
66794;SDS011;53698;52.738;4.752;2022-07-15T14:48:16;6.53;;;1.33;;
66794;SDS011;53698;52.738;4.752;2022-07-15T14:50:41;3.40;;;1.20;;
66794;SDS011;53698;52.738;4.752;2022-07-15T14:53:07;3.05;;;1.50;;
66794;SDS011;53698;52.738;4.752;2022-07-15T14:55:32;5.05;;;1.30;;
66794;SDS011;53698;52.738;4.752;2022-07-15T14:57:58;4.25;;;1.25;;
66794;SDS011;53698;52.738;4.752;2022-07-15T15:00:23;9.82;;;2.28;;
66794;SDS011;53698;52.738;4.752;2022-07-15T15:02:49;4.93;;;1.60;;
66794;SDS011;53698;52.738;4.752;2022-07-15T15:05:14;7.47;;;1.92;;
66794;SDS011;53698;52.738;4.752;2022-07-15T15:07:40;2.70;;;0.90;;
66794;SDS011;53698;52.738;4.752;2022-07-15T15:10:05;4.57;;;1.50;;
66794;SDS011;53698;52.738;4.752;2022-07-15T15:12:31;3.50;;;1.58;;
66794;SDS011;53698;52.738;4.752;2022-07-15T15:14:56;5.40;;;1.50;;
66794;SDS011;53698;52.738;4.752;2022-07-15T15:17:22;3.35;;;1.10;;
66794;SDS011;53698;52.738;4.752;2022-07-15T15:19:47;5.28;;;1.13;;
66794;SDS011;53698;52.738;4.752;2022-07-15T15:22:13;3.50;;;0.70;;
66794;SDS011;53698;52.738;4.752;2022-07-15T15:24:38;3.17;;;0.90;;
66794;SDS011;53698;52.738;4.752;2022-07-15T15:27:04;2.60;;;0.90;;
66794;SDS011;53698;52.738;4.752;2022-07-15T15:29:31;2.53;;;0.70;;
66794;SDS011;53698;52.738;4.752;2022-07-15T15:31:58;3.30;;;1.15;;
66794;SDS011;53698;52.738;4.752;2022-07-15T15:34:23;5.40;;;0.90;;
66794;SDS011;53698;52.738;4.752;2022-07-15T15:36:49;3.13;;;1.20;;
66794;SDS011;53698;52.738;4.752;2022-07-15T15:39:14;2.65;;;0.80;;
66794;SDS011;53698;52.738;4.752;2022-07-15T15:41:40;3.47;;;0.85;;
66794;SDS011;53698;52.738;4.752;2022-07-15T15:44:05;2.42;;;1.38;;
66794;SDS011;53698;52.738;4.752;2022-07-15T15:46:31;4.75;;;1.60;;
66794;SDS011;53698;52.738;4.752;2022-07-15T15:48:57;3.55;;;1.45;;